createdAt,value
2022-12-17T00:02:56.407Z,16.53
2022-12-17T00:06:13.657Z,16.54
2022-12-17T00:09:17.749Z,16.52
2022-12-17T00:12:28.829Z,16.47
2022-12-17T00:15:38.850Z,16.48
2022-12-17T00:18:43.093Z,16.53
2022-12-17T00:21:53.713Z,16.55
2022-12-17T00:25:00.182Z,16.56
2022-12-17T00:28:10.764Z,16.55
2022-12-17T00:31:15.064Z,16.52
2022-12-17T00:34:25.795Z,16.53
2022-12-17T00:37:29.692Z,16.52
2022-12-17T00:40:39.682Z,16.50
2022-12-17T00:43:49.815Z,16.45
2022-12-17T00:46:53.687Z,16.39
2022-12-17T00:50:03.686Z,16.49
2022-12-17T00:53:07.608Z,16.47
2022-12-17T00:56:17.743Z,16.47
2022-12-17T00:59:21.713Z,16.50
2022-12-17T01:02:32.877Z,16.47
2022-12-17T01:05:50.722Z,16.48
2022-12-17T01:08:54.786Z,16.46
2022-12-17T01:12:06.743Z,16.46
2022-12-17T01:15:10.518Z,16.40
2022-12-17T01:18:20.687Z,16.37
2022-12-17T01:21:31.795Z,16.36
2022-12-17T01:24:42.808Z,16.42
2022-12-17T01:27:53.709Z,16.42
2022-12-17T01:31:00.254Z,16.43
2022-12-17T01:34:11.844Z,16.41
2022-12-17T01:37:35.395Z,16.38
2022-12-17T01:40:45.375Z,16.40
2022-12-17T01:44:01.707Z,16.33
2022-12-17T01:47:10.293Z,16.36
2022-12-17T01:50:20.775Z,16.37
2022-12-17T01:53:26.299Z,16.37
2022-12-17T01:56:36.732Z,16.32
2022-12-17T01:59:53.769Z,16.33
2022-12-17T02:03:03.919Z,16.38
2022-12-17T02:06:48.831Z,16.37
2022-12-17T02:10:03.892Z,16.36
2022-12-17T02:13:18.827Z,16.33
2022-12-17T02:16:55.389Z,16.30
2022-12-17T02:20:21.758Z,16.32
2022-12-17T02:23:47.801Z,16.32
2022-12-17T02:27:01.124Z,16.34
2022-12-17T02:30:16.802Z,16.34
2022-12-17T02:33:21.554Z,16.32
2022-12-17T02:36:32.968Z,16.30
2022-12-17T02:39:43.763Z,16.30
2022-12-17T02:42:49.694Z,16.29
2022-12-17T02:45:59.875Z,16.25
2022-12-17T02:49:04.070Z,16.24
2022-12-17T02:52:16.053Z,16.28
2022-12-17T02:55:26.814Z,16.23
2022-12-17T02:58:36.863Z,16.28
2022-12-17T03:01:46.855Z,16.28
2022-12-17T03:05:10.555Z,16.27
2022-12-17T03:08:35.764Z,16.25
2022-12-17T03:11:39.500Z,16.25
2022-12-17T03:14:49.803Z,16.25
2022-12-17T03:17:53.564Z,16.25
2022-12-17T03:21:03.811Z,16.24
2022-12-17T03:24:07.774Z,16.26
2022-12-17T03:27:18.788Z,16.21
2022-12-17T03:30:35.593Z,16.23
2022-12-17T03:33:45.898Z,16.23
2022-12-17T03:36:56.836Z,16.15
2022-12-17T03:40:06.830Z,16.22
2022-12-17T03:43:16.870Z,16.23
2022-12-17T03:46:26.817Z,16.23
2022-12-17T03:49:36.859Z,16.21
2022-12-17T03:52:46.789Z,16.20
2022-12-17T03:55:57.814Z,16.20
2022-12-17T03:59:08.820Z,16.19
2022-12-17T04:02:19.051Z,16.17
2022-12-17T04:05:30.774Z,16.16
2022-12-17T04:08:47.823Z,16.20
2022-12-17T04:11:57.909Z,16.09
2022-12-17T04:15:07.859Z,16.22
2022-12-17T04:18:11.373Z,16.21
2022-12-17T04:21:21.859Z,16.18
2022-12-17T04:24:31.873Z,16.17
2022-12-17T04:27:42.794Z,16.18
2022-12-17T04:30:52.861Z,16.18
2022-12-17T04:33:57.153Z,16.19
2022-12-17T04:37:07.865Z,16.17
2022-12-17T04:40:11.441Z,16.19
2022-12-17T04:43:22.015Z,16.13
2022-12-17T04:46:32.011Z,16.14
2022-12-17T04:49:42.842Z,16.14
2022-12-17T04:52:46.828Z,16.15
2022-12-17T04:55:57.816Z,16.16
2022-12-17T04:59:07.862Z,16.15
2022-12-17T05:02:11.824Z,16.14
2022-12-17T05:05:29.071Z,16.12
2022-12-17T05:08:41.707Z,16.14
2022-12-17T05:11:52.843Z,16.13
2022-12-17T05:15:03.889Z,16.13
2022-12-17T05:18:07.961Z,16.12
2022-12-17T05:21:17.918Z,16.15
2022-12-17T05:24:27.977Z,16.12
2022-12-17T05:27:37.890Z,16.16
2022-12-17T05:30:48.898Z,16.16
2022-12-17T05:33:59.922Z,16.14
2022-12-17T05:37:04.240Z,16.13
2022-12-17T05:40:14.889Z,16.11
2022-12-17T05:43:28.910Z,16.05
2022-12-17T05:46:39.948Z,16.12
2022-12-17T05:49:44.253Z,16.12
2022-12-17T05:52:54.943Z,16.11
2022-12-17T05:56:05.862Z,16.12
2022-12-17T05:59:16.913Z,16.10
2022-12-17T06:02:28.022Z,16.07
2022-12-17T06:05:38.905Z,16.08
2022-12-17T06:08:55.928Z,16.10
2022-12-17T06:12:02.769Z,16.11
2022-12-17T06:15:12.871Z,16.12
2022-12-17T06:18:23.908Z,16.11
2022-12-17T06:21:27.440Z,16.11
2022-12-17T06:24:41.401Z,16.10
2022-12-17T06:27:49.511Z,16.09
2022-12-17T06:30:59.970Z,16.09
2022-12-17T06:34:03.890Z,16.05
2022-12-17T06:37:13.941Z,16.08
2022-12-17T06:40:24.893Z,16.06
2022-12-17T06:43:36.317Z,16.09
2022-12-17T06:46:41.379Z,16.11
2022-12-17T06:49:55.431Z,16.15
2022-12-17T06:53:01.742Z,16.23
2022-12-17T07:17:19.132Z,16.76
2022-12-17T07:20:30.900Z,16.77
2022-12-17T07:23:36.669Z,16.80
2022-12-17T07:26:48.976Z,16.83
2022-12-17T07:29:54.435Z,16.83
2022-12-17T07:33:07.186Z,16.86
2022-12-17T07:36:20.380Z,16.87
2022-12-17T07:39:25.825Z,16.87
2022-12-17T07:42:38.033Z,16.93
2022-12-17T07:45:44.888Z,16.98
2022-12-17T07:48:56.982Z,17.01
2022-12-17T07:52:02.259Z,17.21
2022-12-17T07:55:18.088Z,17.11
2022-12-17T07:58:28.958Z,17.06
2022-12-17T08:01:41.043Z,16.95
2022-12-17T08:04:57.979Z,16.98
2022-12-17T08:08:03.504Z,16.99
2022-12-17T08:11:15.992Z,17.02
2022-12-17T08:14:21.702Z,17.04
2022-12-17T08:17:33.992Z,17.13
2022-12-17T08:20:52.018Z,17.16
2022-12-17T08:23:57.441Z,17.18
2022-12-17T08:27:09.959Z,17.19
2022-12-17T08:30:15.193Z,17.21
2022-12-17T08:33:29.963Z,17.20
2022-12-17T08:36:41.983Z,17.16
2022-12-17T08:39:47.685Z,17.16
2022-12-17T08:43:00.002Z,17.08
2022-12-17T08:46:09.683Z,17.12
2022-12-17T08:49:22.526Z,17.15
2022-12-17T08:52:27.963Z,17.22
2022-12-17T08:55:40.009Z,17.23
2022-12-17T08:58:57.218Z,17.31
2022-12-17T09:02:04.769Z,17.36
2022-12-17T09:05:16.983Z,17.50
2022-12-17T09:08:30.987Z,17.44
2022-12-17T09:11:42.980Z,17.39
2022-12-17T09:14:48.186Z,17.37
2022-12-17T09:18:00.024Z,17.30
2022-12-17T09:21:27.095Z,17.34
2022-12-17T09:24:39.979Z,17.31
2022-12-17T09:27:52.068Z,17.34
2022-12-17T09:31:05.219Z,17.35
2022-12-17T09:34:18.065Z,17.36
2022-12-17T09:37:23.748Z,17.31
2022-12-17T09:40:44.019Z,17.34
2022-12-17T09:44:20.087Z,17.39
2022-12-17T09:47:38.956Z,17.34
2022-12-17T09:50:51.015Z,17.42
2022-12-17T09:54:01.901Z,17.44
2022-12-17T09:57:14.007Z,17.45
2022-12-17T10:00:33.076Z,17.49
2022-12-17T10:03:48.121Z,17.47
2022-12-17T10:07:01.022Z,17.48
2022-12-17T10:10:12.890Z,17.36
2022-12-17T10:13:25.098Z,17.36
2022-12-17T10:16:45.099Z,17.23
2022-12-17T10:20:08.077Z,17.20
2022-12-17T10:23:20.040Z,17.18
2022-12-17T10:26:25.892Z,17.13
2022-12-17T10:29:48.496Z,17.06
2022-12-17T10:32:54.097Z,17.02
2022-12-17T10:36:06.058Z,16.98
2022-12-17T10:39:22.288Z,16.92
2022-12-17T10:42:44.695Z,16.87
2022-12-17T10:46:00.138Z,16.84
2022-12-17T10:49:11.050Z,16.69
2022-12-17T10:52:41.138Z,16.52
2022-12-17T10:55:48.974Z,16.50
2022-12-17T10:59:02.102Z,16.60
2022-12-17T11:02:23.429Z,16.58
2022-12-17T11:05:35.118Z,16.59
2022-12-17T11:08:49.123Z,16.61
2022-12-17T11:12:30.889Z,16.56
2022-12-17T11:15:58.150Z,16.55
2022-12-17T11:19:41.038Z,16.55
2022-12-17T11:23:06.684Z,16.53
2022-12-17T11:26:31.066Z,16.51
2022-12-17T11:29:36.639Z,16.48
2022-12-17T11:33:12.122Z,16.45
2022-12-17T11:36:38.711Z,16.46
2022-12-17T11:40:04.766Z,16.34
2022-12-17T11:43:59.163Z,16.21
2022-12-17T11:47:40.054Z,16.26
2022-12-17T12:19:31.582Z,16.37
2022-12-17T12:23:02.423Z,16.29
2022-12-17T12:26:42.141Z,16.30
2022-12-17T12:30:21.212Z,16.29
2022-12-17T13:19:54.660Z,16.96
2022-12-17T13:23:18.536Z,16.93
2022-12-17T13:26:50.131Z,16.96
2022-12-17T13:29:38.045Z,17.01
2022-12-17T13:32:51.127Z,17.01
2022-12-17T13:35:52.972Z,17.07
2022-12-17T13:39:06.268Z,17.15
2022-12-17T13:41:56.060Z,17.17
2022-12-17T13:52:33.346Z,17.33
2022-12-17T13:55:31.171Z,17.34
2022-12-17T13:58:40.679Z,17.27
2022-12-17T14:01:28.795Z,17.20
2022-12-17T14:04:31.202Z,17.26
2022-12-17T14:08:32.156Z,17.26
2022-12-17T14:11:44.181Z,17.31
2022-12-17T14:14:43.198Z,17.29
2022-12-17T14:17:57.391Z,17.36
2022-12-17T14:21:02.170Z,17.36
2022-12-17T14:23:51.713Z,17.41
2022-12-17T14:26:58.153Z,17.40
2022-12-17T14:29:46.849Z,17.37
2022-12-17T14:32:43.153Z,17.38
2022-12-17T14:35:42.242Z,17.34
2022-12-17T14:38:38.837Z,17.29
2022-12-17T14:41:53.175Z,17.32
2022-12-17T14:44:57.168Z,17.38
2022-12-17T14:48:03.202Z,17.41
2022-12-17T14:50:55.380Z,17.54
2022-12-17T14:53:49.246Z,17.57
2022-12-17T14:56:36.251Z,17.54
2022-12-17T14:59:42.240Z,17.55
2022-12-17T15:07:18.206Z,17.42
2022-12-17T15:13:22.550Z,17.49
2022-12-17T15:16:17.299Z,17.48
2022-12-17T15:19:18.206Z,17.50
2022-12-17T15:30:07.245Z,17.58
2022-12-17T15:32:54.324Z,17.62
2022-12-17T15:35:48.291Z,17.58
2022-12-17T15:38:35.424Z,17.59
2022-12-17T15:41:48.288Z,17.56
2022-12-17T15:44:35.408Z,17.54
2022-12-17T15:47:29.271Z,17.56
2022-12-17T15:50:23.421Z,17.58
2022-12-17T15:53:10.818Z,17.60
2022-12-17T15:56:15.280Z,17.59
2022-12-17T15:59:02.157Z,17.59
2022-12-17T16:01:55.656Z,17.59
2022-12-17T16:04:43.349Z,17.55
2022-12-17T16:07:37.218Z,17.52
2022-12-17T16:10:31.216Z,17.56
2022-12-17T16:13:24.253Z,17.57
2022-12-17T16:19:52.334Z,17.61
2022-12-17T16:22:45.320Z,17.58
2022-12-17T16:25:32.277Z,17.48
2022-12-17T16:28:25.204Z,17.43
2022-12-17T16:31:14.767Z,17.41
2022-12-17T16:34:08.282Z,17.48
2022-12-17T16:40:53.814Z,17.53
2022-12-17T16:43:41.156Z,17.53
2022-12-17T16:46:42.348Z,17.59
2022-12-17T16:49:36.246Z,17.57
2022-12-17T16:52:23.246Z,17.54
2022-12-17T16:55:16.336Z,17.55
2022-12-17T16:58:03.161Z,17.54
2022-12-17T17:01:01.360Z,17.51
2022-12-17T17:03:59.921Z,17.47
2022-12-17T17:06:57.018Z,17.53
2022-12-17T17:09:50.258Z,17.52
2022-12-17T17:12:37.049Z,17.45
2022-12-17T17:15:30.238Z,17.50
2022-12-17T17:18:24.878Z,17.49
2022-12-17T17:21:23.757Z,17.47
2022-12-17T17:24:22.540Z,17.46
2022-12-17T17:27:17.300Z,17.53
2022-12-17T17:30:11.393Z,17.62
2022-12-17T17:33:05.313Z,17.63
2022-12-17T17:40:14.286Z,17.59
2022-12-17T18:08:26.536Z,17.66
2022-12-17T18:11:23.303Z,17.62
2022-12-17T18:22:31.483Z,17.47
2022-12-17T18:36:48.420Z,17.50
2022-12-17T18:39:53.912Z,17.51
2022-12-17T18:51:17.121Z,17.42
2022-12-17T18:58:05.725Z,17.46
2022-12-17T19:00:59.542Z,17.44
2022-12-17T19:03:46.729Z,17.44
2022-12-17T19:06:42.388Z,17.35
2022-12-17T19:09:31.322Z,17.38
2022-12-17T19:12:32.982Z,17.36
2022-12-17T19:16:27.473Z,17.37
2022-12-17T19:19:29.966Z,17.41
2022-12-17T19:26:41.606Z,17.49
2022-12-17T19:29:35.393Z,17.45
2022-12-17T19:41:17.139Z,17.43
2022-12-17T19:44:13.398Z,17.40
2022-12-17T19:47:00.162Z,17.46
2022-12-17T19:49:54.410Z,17.50
2022-12-17T19:53:03.367Z,17.53
2022-12-17T19:55:57.147Z,17.55
2022-12-17T19:58:48.176Z,17.57
2022-12-17T20:01:56.097Z,17.54
2022-12-17T20:37:28.250Z,17.50
2022-12-17T20:40:33.037Z,17.53
2022-12-17T20:43:29.626Z,17.54
2022-12-17T20:46:26.566Z,17.57
2022-12-17T20:49:21.414Z,17.52
2022-12-17T20:57:25.827Z,17.51
2022-12-17T21:00:19.387Z,17.53
2022-12-17T21:03:07.808Z,17.50
2022-12-17T21:14:32.005Z,17.50
2022-12-17T21:20:41.436Z,17.44
2022-12-17T21:23:36.438Z,17.43
2022-12-17T21:26:25.065Z,17.44
2022-12-17T21:29:18.400Z,17.48
2022-12-17T21:32:11.452Z,17.45
2022-12-17T21:34:58.402Z,17.53
2022-12-17T21:37:51.442Z,17.56
2022-12-17T21:40:38.314Z,17.52
2022-12-17T21:43:31.434Z,17.49
2022-12-17T21:46:24.473Z,17.44
2022-12-17T21:49:17.394Z,17.48
2022-12-17T21:52:11.468Z,17.48
2022-12-17T21:55:05.426Z,17.45
2022-12-17T21:57:53.006Z,17.46
2022-12-17T22:00:46.452Z,17.47
2022-12-17T22:03:33.254Z,17.52
2022-12-17T22:06:32.391Z,17.50
2022-12-17T22:10:03.898Z,17.46
2022-12-17T22:12:53.631Z,17.46
2022-12-17T22:15:48.323Z,17.42
2022-12-17T22:18:41.622Z,17.46
2022-12-17T22:21:35.487Z,17.40
2022-12-17T22:24:32.528Z,17.36
2022-12-17T22:27:30.488Z,17.25
2022-12-17T22:30:36.748Z,17.24
2022-12-17T22:34:04.327Z,17.21
2022-12-17T22:38:09.486Z,17.16
2022-12-17T22:44:34.649Z,17.12
2022-12-17T22:44:45.810Z,17.02
2022-12-17T22:46:37.478Z,16.98
2022-12-17T22:49:31.441Z,16.99
2022-12-17T22:52:18.692Z,16.94
2022-12-17T22:55:14.514Z,16.86
2022-12-17T22:58:08.479Z,16.87
2022-12-17T23:00:55.420Z,16.85
2022-12-17T23:03:48.568Z,16.84
2022-12-17T23:06:35.503Z,16.80
2022-12-17T23:09:30.511Z,16.74
2022-12-17T23:12:35.845Z,16.66
2022-12-17T23:15:31.466Z,16.53
2022-12-17T23:18:24.493Z,16.66
2022-12-17T23:21:15.738Z,16.62
2022-12-17T23:24:09.501Z,16.57
2022-12-17T23:27:02.458Z,16.55
2022-12-17T23:29:49.424Z,16.55
2022-12-17T23:32:43.482Z,16.53
2022-12-17T23:35:38.483Z,16.52
2022-12-17T23:38:25.288Z,16.51
2022-12-17T23:41:30.549Z,16.49
2022-12-17T23:44:23.504Z,16.42
2022-12-17T23:47:16.508Z,16.45
2022-12-17T23:50:03.898Z,16.43
2022-12-17T23:52:57.528Z,16.39
2022-12-17T23:55:50.494Z,16.39
2022-12-17T23:58:45.505Z,16.41
